ADDS METAR Data

Data at: 0531 UTC 19 Jan 2018

METAR for:CYHZ (Halifax/Stanfield In, NS, CN)
Text:CYHZ 190500Z 36005KT 15SM SCT017 M08/M08 A2973 RMK SC3 SLP078
Temperature: -8.0°C ( 18°F)
Dewpoint: -8.0°C ( 18°F) [RH = 100%]
Pressure (altimeter):29.73 inches Hg (1006.9 mb) [Sea level pressure: 1007.8 mb]
Winds:from the N (360 degrees) at 6 MPH (5 knots; 2.6 m/s)
Visibility: 15 sm ( 24 km)
Ceiling:at least 12,000 feet AGL
Clouds: scattered clouds at 1700 feet AGL